sensor_id;sensor_type;location;lat;lon;timestamp;P1;durP1;ratioP1;P2;durP2;ratioP2
8399;SDS011;4237;47.030;15.396;2024-01-11T00:00:03;45.77;;;24.53;;
8399;SDS011;4237;47.030;15.396;2024-01-11T00:02:33;40.33;;;25.03;;
8399;SDS011;4237;47.030;15.396;2024-01-11T00:05:01;43.50;;;25.20;;
8399;SDS011;4237;47.030;15.396;2024-01-11T00:07:30;35.53;;;23.60;;
8399;SDS011;4237;47.030;15.396;2024-01-11T00:09:58;38.30;;;23.57;;
8399;SDS011;4237;47.030;15.396;2024-01-11T00:12:29;43.00;;;25.37;;
8399;SDS011;4237;47.030;15.396;2024-01-11T00:14:58;39.60;;;24.00;;
8399;SDS011;4237;47.030;15.396;2024-01-11T00:17:27;35.43;;;22.97;;
8399;SDS011;4237;47.030;15.396;2024-01-11T00:19:55;43.00;;;24.90;;
8399;SDS011;4237;47.030;15.396;2024-01-11T00:22:24;39.87;;;24.50;;
8399;SDS011;4237;47.030;15.396;2024-01-11T00:24:52;44.07;;;25.53;;
8399;SDS011;4237;47.030;15.396;2024-01-11T00:27:21;38.47;;;22.83;;
8399;SDS011;4237;47.030;15.396;2024-01-11T00:29:49;38.17;;;23.70;;
8399;SDS011;4237;47.030;15.396;2024-01-11T00:32:18;42.53;;;25.10;;
8399;SDS011;4237;47.030;15.396;2024-01-11T00:34:48;45.30;;;26.03;;
8399;SDS011;4237;47.030;15.396;2024-01-11T00:37:16;42.73;;;25.67;;
8399;SDS011;4237;47.030;15.396;2024-01-11T00:39:45;44.80;;;26.37;;
8399;SDS011;4237;47.030;15.396;2024-01-11T00:42:14;42.87;;;26.03;;
8399;SDS011;4237;47.030;15.396;2024-01-11T00:44:43;43.70;;;26.43;;
8399;SDS011;4237;47.030;15.396;2024-01-11T00:47:12;45.37;;;27.50;;
8399;SDS011;4237;47.030;15.396;2024-01-11T00:49:40;45.47;;;26.20;;
8399;SDS011;4237;47.030;15.396;2024-01-11T00:52:09;45.93;;;27.93;;
8399;SDS011;4237;47.030;15.396;2024-01-11T00:54:39;46.10;;;28.00;;
8399;SDS011;4237;47.030;15.396;2024-01-11T00:57:08;52.43;;;29.37;;
8399;SDS011;4237;47.030;15.396;2024-01-11T00:59:37;49.97;;;28.37;;
8399;SDS011;4237;47.030;15.396;2024-01-11T01:02:07;48.30;;;28.37;;
8399;SDS011;4237;47.030;15.396;2024-01-11T01:04:38;45.63;;;27.37;;
8399;SDS011;4237;47.030;15.396;2024-01-11T01:07:07;44.07;;;25.63;;
8399;SDS011;4237;47.030;15.396;2024-01-11T01:09:36;46.10;;;26.33;;
8399;SDS011;4237;47.030;15.396;2024-01-11T01:12:05;41.07;;;24.33;;
8399;SDS011;4237;47.030;15.396;2024-01-11T01:14:34;43.00;;;27.90;;
8399;SDS011;4237;47.030;15.396;2024-01-11T01:17:02;44.60;;;26.43;;
8399;SDS011;4237;47.030;15.396;2024-01-11T01:19:32;40.50;;;23.80;;
8399;SDS011;4237;47.030;15.396;2024-01-11T01:22:00;38.87;;;24.97;;
8399;SDS011;4237;47.030;15.396;2024-01-11T01:24:30;36.87;;;23.20;;
8399;SDS011;4237;47.030;15.396;2024-01-11T01:26:59;40.53;;;24.80;;
8399;SDS011;4237;47.030;15.396;2024-01-11T01:29:27;43.07;;;25.90;;
8399;SDS011;4237;47.030;15.396;2024-01-11T01:31:56;44.47;;;26.27;;
8399;SDS011;4237;47.030;15.396;2024-01-11T01:34:24;50.33;;;27.80;;
8399;SDS011;4237;47.030;15.396;2024-01-11T01:36:53;40.87;;;24.30;;
8399;SDS011;4237;47.030;15.396;2024-01-11T01:39:21;39.97;;;24.60;;
8399;SDS011;4237;47.030;15.396;2024-01-11T01:41:50;38.50;;;23.53;;
8399;SDS011;4237;47.030;15.396;2024-01-11T01:44:19;42.73;;;25.73;;
8399;SDS011;4237;47.030;15.396;2024-01-11T01:46:47;44.63;;;26.57;;
8399;SDS011;4237;47.030;15.396;2024-01-11T01:49:17;43.00;;;26.80;;
8399;SDS011;4237;47.030;15.396;2024-01-11T01:51:47;43.73;;;26.90;;
8399;SDS011;4237;47.030;15.396;2024-01-11T01:54:16;43.37;;;25.53;;
8399;SDS011;4237;47.030;15.396;2024-01-11T01:56:46;42.47;;;25.33;;
8399;SDS011;4237;47.030;15.396;2024-01-11T01:59:15;46.07;;;26.03;;
8399;SDS011;4237;47.030;15.396;2024-01-11T02:01:45;39.93;;;24.97;;
8399;SDS011;4237;47.030;15.396;2024-01-11T02:04:14;38.10;;;24.13;;
8399;SDS011;4237;47.030;15.396;2024-01-11T02:06:43;40.80;;;25.73;;
8399;SDS011;4237;47.030;15.396;2024-01-11T02:09:14;43.90;;;25.57;;
8399;SDS011;4237;47.030;15.396;2024-01-11T02:11:45;50.80;;;28.70;;
8399;SDS011;4237;47.030;15.396;2024-01-11T02:14:14;43.67;;;25.60;;
8399;SDS011;4237;47.030;15.396;2024-01-11T02:16:42;45.60;;;26.27;;
8399;SDS011;4237;47.030;15.396;2024-01-11T02:19:17;45.07;;;26.17;;
8399;SDS011;4237;47.030;15.396;2024-01-11T02:21:42;45.17;;;27.67;;
8399;SDS011;4237;47.030;15.396;2024-01-11T02:24:10;45.10;;;28.20;;
8399;SDS011;4237;47.030;15.396;2024-01-11T02:27:01;43.20;;;27.30;;
8399;SDS011;4237;47.030;15.396;2024-01-11T02:29:29;43.13;;;25.07;;
8399;SDS011;4237;47.030;15.396;2024-01-11T02:31:58;55.60;;;26.97;;
8399;SDS011;4237;47.030;15.396;2024-01-11T02:34:29;44.40;;;26.53;;
8399;SDS011;4237;47.030;15.396;2024-01-11T02:36:58;48.63;;;27.83;;
8399;SDS011;4237;47.030;15.396;2024-01-11T02:39:27;49.70;;;27.97;;
8399;SDS011;4237;47.030;15.396;2024-01-11T02:41:56;46.03;;;27.30;;
8399;SDS011;4237;47.030;15.396;2024-01-11T02:44:25;41.37;;;25.30;;
8399;SDS011;4237;47.030;15.396;2024-01-11T02:46:54;42.40;;;25.97;;
8399;SDS011;4237;47.030;15.396;2024-01-11T02:49:22;42.80;;;25.93;;
8399;SDS011;4237;47.030;15.396;2024-01-11T02:51:51;42.57;;;25.47;;
8399;SDS011;4237;47.030;15.396;2024-01-11T02:54:20;41.40;;;26.03;;
8399;SDS011;4237;47.030;15.396;2024-01-11T02:56:48;46.67;;;26.83;;
8399;SDS011;4237;47.030;15.396;2024-01-11T02:59:17;43.60;;;26.13;;
8399;SDS011;4237;47.030;15.396;2024-01-11T03:01:45;45.97;;;26.30;;
8399;SDS011;4237;47.030;15.396;2024-01-11T03:04:14;42.27;;;24.87;;
8399;SDS011;4237;47.030;15.396;2024-01-11T03:06:43;43.80;;;25.33;;
8399;SDS011;4237;47.030;15.396;2024-01-11T03:09:12;43.80;;;26.37;;
8399;SDS011;4237;47.030;15.396;2024-01-11T03:11:40;42.30;;;24.93;;
8399;SDS011;4237;47.030;15.396;2024-01-11T03:14:09;46.20;;;25.53;;
8399;SDS011;4237;47.030;15.396;2024-01-11T03:16:37;41.10;;;23.57;;
8399;SDS011;4237;47.030;15.396;2024-01-11T03:19:06;39.00;;;23.90;;
8399;SDS011;4237;47.030;15.396;2024-01-11T03:21:35;44.53;;;25.10;;
8399;SDS011;4237;47.030;15.396;2024-01-11T03:24:05;38.67;;;24.07;;
8399;SDS011;4237;47.030;15.396;2024-01-11T03:26:33;43.60;;;24.00;;
8399;SDS011;4237;47.030;15.396;2024-01-11T03:29:02;44.17;;;25.90;;
8399;SDS011;4237;47.030;15.396;2024-01-11T03:31:31;35.67;;;23.73;;
8399;SDS011;4237;47.030;15.396;2024-01-11T03:33:59;44.90;;;24.13;;
8399;SDS011;4237;47.030;15.396;2024-01-11T03:36:28;41.60;;;25.13;;
8399;SDS011;4237;47.030;15.396;2024-01-11T03:38:57;39.83;;;23.33;;
8399;SDS011;4237;47.030;15.396;2024-01-11T03:41:25;40.57;;;23.40;;
8399;SDS011;4237;47.030;15.396;2024-01-11T03:43:54;40.77;;;23.03;;
8399;SDS011;4237;47.030;15.396;2024-01-11T03:46:22;39.27;;;23.53;;
8399;SDS011;4237;47.030;15.396;2024-01-11T03:48:51;32.20;;;20.80;;
8399;SDS011;4237;47.030;15.396;2024-01-11T03:51:19;35.67;;;22.20;;
8399;SDS011;4237;47.030;15.396;2024-01-11T03:53:48;36.27;;;21.33;;
8399;SDS011;4237;47.030;15.396;2024-01-11T03:56:16;36.73;;;22.23;;
8399;SDS011;4237;47.030;15.396;2024-01-11T03:58:46;38.63;;;23.10;;
8399;SDS011;4237;47.030;15.396;2024-01-11T04:01:15;38.00;;;22.27;;
8399;SDS011;4237;47.030;15.396;2024-01-11T04:03:43;35.20;;;21.67;;
8399;SDS011;4237;47.030;15.396;2024-01-11T04:06:24;34.80;;;22.47;;
8399;SDS011;4237;47.030;15.396;2024-01-11T04:08:52;35.87;;;22.30;;
8399;SDS011;4237;47.030;15.396;2024-01-11T04:11:21;31.60;;;19.70;;
8399;SDS011;4237;47.030;15.396;2024-01-11T04:13:50;32.73;;;19.60;;
8399;SDS011;4237;47.030;15.396;2024-01-11T04:16:19;32.80;;;19.87;;
8399;SDS011;4237;47.030;15.396;2024-01-11T04:18:49;37.87;;;21.80;;
8399;SDS011;4237;47.030;15.396;2024-01-11T04:21:21;40.00;;;23.03;;
8399;SDS011;4237;47.030;15.396;2024-01-11T04:23:50;38.10;;;23.10;;
8399;SDS011;4237;47.030;15.396;2024-01-11T04:26:19;39.97;;;22.77;;
8399;SDS011;4237;47.030;15.396;2024-01-11T04:28:47;38.07;;;24.13;;
8399;SDS011;4237;47.030;15.396;2024-01-11T04:31:17;47.97;;;27.27;;
8399;SDS011;4237;47.030;15.396;2024-01-11T04:33:45;46.30;;;28.00;;
8399;SDS011;4237;47.030;15.396;2024-01-11T04:36:14;39.97;;;23.67;;
8399;SDS011;4237;47.030;15.396;2024-01-11T04:38:43;44.03;;;25.20;;
8399;SDS011;4237;47.030;15.396;2024-01-11T04:41:12;49.07;;;27.10;;
8399;SDS011;4237;47.030;15.396;2024-01-11T04:43:42;44.00;;;25.50;;
8399;SDS011;4237;47.030;15.396;2024-01-11T04:48:45;46.80;;;26.20;;
8399;SDS011;4237;47.030;15.396;2024-01-11T04:51:14;42.33;;;24.87;;
8399;SDS011;4237;47.030;15.396;2024-01-11T04:53:44;41.47;;;24.50;;
8399;SDS011;4237;47.030;15.396;2024-01-11T04:56:15;42.50;;;25.20;;
8399;SDS011;4237;47.030;15.396;2024-01-11T04:58:44;39.47;;;23.23;;
8399;SDS011;4237;47.030;15.396;2024-01-11T05:01:13;43.33;;;25.50;;
8399;SDS011;4237;47.030;15.396;2024-01-11T05:03:43;43.97;;;26.47;;
8399;SDS011;4237;47.030;15.396;2024-01-11T05:06:16;49.30;;;29.60;;
8399;SDS011;4237;47.030;15.396;2024-01-11T05:08:51;46.63;;;26.80;;
8399;SDS011;4237;47.030;15.396;2024-01-11T05:11:21;45.50;;;26.53;;
8399;SDS011;4237;47.030;15.396;2024-01-11T05:13:52;40.23;;;26.00;;
8399;SDS011;4237;47.030;15.396;2024-01-11T05:18:52;44.40;;;26.60;;
8399;SDS011;4237;47.030;15.396;2024-01-11T05:21:22;50.37;;;27.77;;
8399;SDS011;4237;47.030;15.396;2024-01-11T05:23:52;48.77;;;27.97;;
8399;SDS011;4237;47.030;15.396;2024-01-11T05:26:21;48.73;;;28.30;;
8399;SDS011;4237;47.030;15.396;2024-01-11T05:28:49;47.67;;;27.40;;
8399;SDS011;4237;47.030;15.396;2024-01-11T05:31:18;45.80;;;26.60;;
8399;SDS011;4237;47.030;15.396;2024-01-11T05:33:47;44.57;;;26.17;;
8399;SDS011;4237;47.030;15.396;2024-01-11T05:36:16;47.00;;;28.27;;
8399;SDS011;4237;47.030;15.396;2024-01-11T05:38:44;46.77;;;29.93;;
8399;SDS011;4237;47.030;15.396;2024-01-11T05:41:13;45.63;;;28.00;;
8399;SDS011;4237;47.030;15.396;2024-01-11T05:43:42;46.70;;;27.67;;
8399;SDS011;4237;47.030;15.396;2024-01-11T05:46:11;42.00;;;26.40;;
8399;SDS011;4237;47.030;15.396;2024-01-11T05:48:39;45.67;;;27.53;;
8399;SDS011;4237;47.030;15.396;2024-01-11T05:51:08;47.23;;;29.47;;
8399;SDS011;4237;47.030;15.396;2024-01-11T05:53:37;53.17;;;30.37;;
8399;SDS011;4237;47.030;15.396;2024-01-11T05:56:09;48.37;;;28.07;;
8399;SDS011;4237;47.030;15.396;2024-01-11T05:58:39;46.20;;;27.03;;
8399;SDS011;4237;47.030;15.396;2024-01-11T06:01:07;46.67;;;28.30;;
8399;SDS011;4237;47.030;15.396;2024-01-11T06:03:36;45.33;;;28.17;;
8399;SDS011;4237;47.030;15.396;2024-01-11T06:06:05;50.63;;;26.73;;
8399;SDS011;4237;47.030;15.396;2024-01-11T06:08:34;49.80;;;28.47;;
8399;SDS011;4237;47.030;15.396;2024-01-11T06:11:03;46.60;;;29.00;;
8399;SDS011;4237;47.030;15.396;2024-01-11T06:13:32;45.73;;;28.37;;
8399;SDS011;4237;47.030;15.396;2024-01-11T06:16:01;50.73;;;29.70;;
8399;SDS011;4237;47.030;15.396;2024-01-11T06:18:29;51.47;;;31.93;;
8399;SDS011;4237;47.030;15.396;2024-01-11T06:20:58;53.70;;;31.17;;
8399;SDS011;4237;47.030;15.396;2024-01-11T06:23:26;53.87;;;31.40;;
8399;SDS011;4237;47.030;15.396;2024-01-11T06:25:55;50.67;;;30.67;;
8399;SDS011;4237;47.030;15.396;2024-01-11T06:28:24;47.27;;;28.30;;
8399;SDS011;4237;47.030;15.396;2024-01-11T06:30:52;47.53;;;27.47;;
8399;SDS011;4237;47.030;15.396;2024-01-11T06:33:21;45.10;;;27.30;;
8399;SDS011;4237;47.030;15.396;2024-01-11T06:35:49;47.57;;;29.83;;
8399;SDS011;4237;47.030;15.396;2024-01-11T06:38:18;49.90;;;30.27;;
8399;SDS011;4237;47.030;15.396;2024-01-11T06:40:47;49.83;;;29.77;;
8399;SDS011;4237;47.030;15.396;2024-01-11T06:43:16;43.40;;;28.17;;
8399;SDS011;4237;47.030;15.396;2024-01-11T06:45:45;52.97;;;29.40;;
8399;SDS011;4237;47.030;15.396;2024-01-11T06:48:13;52.90;;;31.17;;
8399;SDS011;4237;47.030;15.396;2024-01-11T06:50:43;46.17;;;28.47;;
8399;SDS011;4237;47.030;15.396;2024-01-11T06:53:11;49.27;;;28.77;;
8399;SDS011;4237;47.030;15.396;2024-01-11T06:55:40;47.53;;;28.73;;
8399;SDS011;4237;47.030;15.396;2024-01-11T06:58:10;41.40;;;27.00;;
8399;SDS011;4237;47.030;15.396;2024-01-11T07:00:39;42.53;;;25.30;;
8399;SDS011;4237;47.030;15.396;2024-01-11T07:03:09;38.40;;;25.13;;
8399;SDS011;4237;47.030;15.396;2024-01-11T07:05:38;50.47;;;29.70;;
8399;SDS011;4237;47.030;15.396;2024-01-11T07:08:08;41.70;;;26.87;;
8399;SDS011;4237;47.030;15.396;2024-01-11T07:10:37;52.87;;;31.27;;
8399;SDS011;4237;47.030;15.396;2024-01-11T07:13:05;55.20;;;32.17;;
8399;SDS011;4237;47.030;15.396;2024-01-11T07:15:36;51.37;;;31.23;;
8399;SDS011;4237;47.030;15.396;2024-01-11T07:18:04;56.50;;;31.37;;
8399;SDS011;4237;47.030;15.396;2024-01-11T07:20:33;42.57;;;27.70;;
8399;SDS011;4237;47.030;15.396;2024-01-11T07:23:01;46.03;;;28.07;;
8399;SDS011;4237;47.030;15.396;2024-01-11T07:25:30;41.20;;;25.97;;
8399;SDS011;4237;47.030;15.396;2024-01-11T07:28:01;40.77;;;25.27;;
8399;SDS011;4237;47.030;15.396;2024-01-11T07:30:30;41.37;;;26.77;;
8399;SDS011;4237;47.030;15.396;2024-01-11T07:32:58;48.37;;;31.60;;
8399;SDS011;4237;47.030;15.396;2024-01-11T07:35:27;42.27;;;28.27;;
8399;SDS011;4237;47.030;15.396;2024-01-11T07:37:55;34.57;;;23.47;;
8399;SDS011;4237;47.030;15.396;2024-01-11T07:40:24;34.20;;;23.60;;
8399;SDS011;4237;47.030;15.396;2024-01-11T07:42:53;32.80;;;22.17;;
8399;SDS011;4237;47.030;15.396;2024-01-11T07:45:21;29.73;;;21.27;;
8399;SDS011;4237;47.030;15.396;2024-01-11T07:47:50;29.60;;;21.73;;
8399;SDS011;4237;47.030;15.396;2024-01-11T07:50:19;29.10;;;22.13;;
8399;SDS011;4237;47.030;15.396;2024-01-11T07:52:47;32.20;;;22.90;;
8399;SDS011;4237;47.030;15.396;2024-01-11T07:55:16;38.80;;;25.63;;
8399;SDS011;4237;47.030;15.396;2024-01-11T07:57:45;36.47;;;27.10;;
8399;SDS011;4237;47.030;15.396;2024-01-11T08:00:13;34.80;;;25.67;;
8399;SDS011;4237;47.030;15.396;2024-01-11T08:02:42;36.17;;;24.70;;
8399;SDS011;4237;47.030;15.396;2024-01-11T08:05:11;33.20;;;24.67;;
8399;SDS011;4237;47.030;15.396;2024-01-11T08:07:39;33.93;;;24.70;;
8399;SDS011;4237;47.030;15.396;2024-01-11T08:10:11;34.40;;;24.40;;
8399;SDS011;4237;47.030;15.396;2024-01-11T08:12:40;30.07;;;23.07;;
8399;SDS011;4237;47.030;15.396;2024-01-11T08:15:08;31.77;;;22.90;;
8399;SDS011;4237;47.030;15.396;2024-01-11T08:17:43;35.43;;;24.70;;
8399;SDS011;4237;47.030;15.396;2024-01-11T08:20:12;34.10;;;23.70;;
8399;SDS011;4237;47.030;15.396;2024-01-11T08:22:41;39.63;;;26.13;;
8399;SDS011;4237;47.030;15.396;2024-01-11T08:25:15;34.33;;;24.53;;
8399;SDS011;4237;47.030;15.396;2024-01-11T08:27:44;31.77;;;24.30;;
8399;SDS011;4237;47.030;15.396;2024-01-11T08:30:13;32.57;;;23.07;;
8399;SDS011;4237;47.030;15.396;2024-01-11T08:32:42;34.97;;;23.97;;
8399;SDS011;4237;47.030;15.396;2024-01-11T08:35:11;29.97;;;23.13;;
8399;SDS011;4237;47.030;15.396;2024-01-11T08:37:40;29.30;;;23.63;;
8399;SDS011;4237;47.030;15.396;2024-01-11T08:40:08;26.87;;;22.93;;
8399;SDS011;4237;47.030;15.396;2024-01-11T08:42:37;29.27;;;23.00;;
8399;SDS011;4237;47.030;15.396;2024-01-11T08:45:08;28.50;;;23.43;;
8399;SDS011;4237;47.030;15.396;2024-01-11T08:47:37;31.07;;;23.90;;
8399;SDS011;4237;47.030;15.396;2024-01-11T08:50:06;34.90;;;23.03;;
8399;SDS011;4237;47.030;15.396;2024-01-11T08:52:35;29.93;;;23.60;;
8399;SDS011;4237;47.030;15.396;2024-01-11T08:55:05;28.17;;;21.63;;
8399;SDS011;4237;47.030;15.396;2024-01-11T08:57:34;29.53;;;22.77;;
8399;SDS011;4237;47.030;15.396;2024-01-11T09:00:04;30.87;;;23.03;;
8399;SDS011;4237;47.030;15.396;2024-01-11T09:02:35;28.50;;;23.50;;
8399;SDS011;4237;47.030;15.396;2024-01-11T09:05:04;32.07;;;25.17;;
8399;SDS011;4237;47.030;15.396;2024-01-11T09:07:34;27.70;;;21.17;;
8399;SDS011;4237;47.030;15.396;2024-01-11T09:10:02;31.17;;;23.13;;
8399;SDS011;4237;47.030;15.396;2024-01-11T09:12:31;30.63;;;24.07;;
8399;SDS011;4237;47.030;15.396;2024-01-11T09:15:00;28.97;;;22.37;;
8399;SDS011;4237;47.030;15.396;2024-01-11T09:17:29;31.93;;;23.13;;
8399;SDS011;4237;47.030;15.396;2024-01-11T09:19:59;31.67;;;23.03;;
8399;SDS011;4237;47.030;15.396;2024-01-11T09:22:28;30.20;;;23.30;;
8399;SDS011;4237;47.030;15.396;2024-01-11T09:24:56;30.57;;;23.77;;
8399;SDS011;4237;47.030;15.396;2024-01-11T09:27:25;27.53;;;24.23;;
8399;SDS011;4237;47.030;15.396;2024-01-11T09:29:53;31.90;;;23.43;;
8399;SDS011;4237;47.030;15.396;2024-01-11T09:32:22;30.70;;;24.63;;
8399;SDS011;4237;47.030;15.396;2024-01-11T09:34:50;32.33;;;23.73;;
8399;SDS011;4237;47.030;15.396;2024-01-11T09:37:19;31.43;;;24.30;;
8399;SDS011;4237;47.030;15.396;2024-01-11T09:39:47;30.87;;;22.93;;
8399;SDS011;4237;47.030;15.396;2024-01-11T09:42:16;28.67;;;22.40;;
8399;SDS011;4237;47.030;15.396;2024-01-11T09:44:46;29.60;;;23.10;;
8399;SDS011;4237;47.030;15.396;2024-01-11T09:47:15;31.10;;;22.50;;
8399;SDS011;4237;47.030;15.396;2024-01-11T09:49:44;29.33;;;22.70;;
8399;SDS011;4237;47.030;15.396;2024-01-11T09:52:15;30.90;;;22.30;;
8399;SDS011;4237;47.030;15.396;2024-01-11T09:54:44;28.43;;;22.27;;
8399;SDS011;4237;47.030;15.396;2024-01-11T09:57:12;29.03;;;22.10;;
8399;SDS011;4237;47.030;15.396;2024-01-11T09:59:44;33.00;;;23.03;;
8399;SDS011;4237;47.030;15.396;2024-01-11T10:02:13;28.27;;;23.00;;
8399;SDS011;4237;47.030;15.396;2024-01-11T10:04:42;28.87;;;22.03;;
8399;SDS011;4237;47.030;15.396;2024-01-11T10:07:11;35.40;;;22.77;;
8399;SDS011;4237;47.030;15.396;2024-01-11T10:09:41;28.73;;;23.60;;
8399;SDS011;4237;47.030;15.396;2024-01-11T10:12:11;29.43;;;23.10;;
8399;SDS011;4237;47.030;15.396;2024-01-11T10:14:39;28.73;;;22.97;;
8399;SDS011;4237;47.030;15.396;2024-01-11T10:17:08;28.93;;;24.73;;
8399;SDS011;4237;47.030;15.396;2024-01-11T10:19:36;27.77;;;23.03;;
8399;SDS011;4237;47.030;15.396;2024-01-11T10:22:05;29.77;;;23.27;;
8399;SDS011;4237;47.030;15.396;2024-01-11T10:24:33;35.10;;;23.90;;
8399;SDS011;4237;47.030;15.396;2024-01-11T10:27:03;30.07;;;22.87;;
8399;SDS011;4237;47.030;15.396;2024-01-11T10:29:33;31.00;;;22.30;;
8399;SDS011;4237;47.030;15.396;2024-01-11T10:32:04;28.90;;;22.90;;
8399;SDS011;4237;47.030;15.396;2024-01-11T10:34:33;29.40;;;22.37;;
8399;SDS011;4237;47.030;15.396;2024-01-11T10:37:03;29.83;;;22.40;;
8399;SDS011;4237;47.030;15.396;2024-01-11T10:39:32;30.03;;;21.80;;
8399;SDS011;4237;47.030;15.396;2024-01-11T10:42:07;28.13;;;21.20;;
8399;SDS011;4237;47.030;15.396;2024-01-11T10:44:34;29.07;;;21.60;;
8399;SDS011;4237;47.030;15.396;2024-01-11T10:47:04;29.23;;;22.93;;
8399;SDS011;4237;47.030;15.396;2024-01-11T10:49:37;28.07;;;21.40;;
8399;SDS011;4237;47.030;15.396;2024-01-11T10:52:08;28.17;;;22.17;;
8399;SDS011;4237;47.030;15.396;2024-01-11T10:54:40;27.37;;;23.33;;
8399;SDS011;4237;47.030;15.396;2024-01-11T10:57:10;28.30;;;20.70;;
8399;SDS011;4237;47.030;15.396;2024-01-11T10:59:40;24.13;;;20.10;;
8399;SDS011;4237;47.030;15.396;2024-01-11T11:02:10;22.63;;;19.37;;
8399;SDS011;4237;47.030;15.396;2024-01-11T11:04:42;23.07;;;19.40;;
8399;SDS011;4237;47.030;15.396;2024-01-11T11:07:13;22.00;;;18.60;;
8399;SDS011;4237;47.030;15.396;2024-01-11T11:09:43;25.20;;;18.60;;
8399;SDS011;4237;47.030;15.396;2024-01-11T11:12:12;22.43;;;18.33;;
8399;SDS011;4237;47.030;15.396;2024-01-11T11:14:42;23.10;;;17.60;;
8399;SDS011;4237;47.030;15.396;2024-01-11T11:17:12;27.57;;;17.10;;
8399;SDS011;4237;47.030;15.396;2024-01-11T11:19:42;22.40;;;17.77;;
8399;SDS011;4237;47.030;15.396;2024-01-11T11:22:12;20.67;;;16.83;;
8399;SDS011;4237;47.030;15.396;2024-01-11T11:24:42;23.37;;;16.50;;
8399;SDS011;4237;47.030;15.396;2024-01-11T11:27:14;19.30;;;16.60;;
8399;SDS011;4237;47.030;15.396;2024-01-11T11:29:46;20.00;;;15.93;;
8399;SDS011;4237;47.030;15.396;2024-01-11T11:32:16;16.57;;;14.83;;
8399;SDS011;4237;47.030;15.396;2024-01-11T11:34:45;21.13;;;16.87;;
8399;SDS011;4237;47.030;15.396;2024-01-11T11:37:22;24.87;;;16.73;;
8399;SDS011;4237;47.030;15.396;2024-01-11T11:39:51;24.10;;;17.33;;
8399;SDS011;4237;47.030;15.396;2024-01-11T11:42:22;19.83;;;14.63;;
8399;SDS011;4237;47.030;15.396;2024-01-11T11:44:51;19.30;;;13.73;;
8399;SDS011;4237;47.030;15.396;2024-01-11T11:47:20;16.27;;;13.67;;
8399;SDS011;4237;47.030;15.396;2024-01-11T11:52:37;15.80;;;13.20;;
8399;SDS011;4237;47.030;15.396;2024-01-11T11:55:08;17.33;;;12.83;;
8399;SDS011;4237;47.030;15.396;2024-01-11T11:57:37;17.20;;;12.33;;
8399;SDS011;4237;47.030;15.396;2024-01-11T12:00:06;22.20;;;16.00;;
8399;SDS011;4237;47.030;15.396;2024-01-11T12:02:38;17.87;;;14.13;;
8399;SDS011;4237;47.030;15.396;2024-01-11T12:05:07;15.23;;;13.17;;
8399;SDS011;4237;47.030;15.396;2024-01-11T12:07:36;17.30;;;12.83;;
8399;SDS011;4237;47.030;15.396;2024-01-11T12:10:05;15.80;;;11.93;;
8399;SDS011;4237;47.030;15.396;2024-01-11T12:12:34;14.97;;;11.87;;
8399;SDS011;4237;47.030;15.396;2024-01-11T12:15:05;13.73;;;12.17;;
8399;SDS011;4237;47.030;15.396;2024-01-11T12:17:34;15.00;;;12.20;;
8399;SDS011;4237;47.030;15.396;2024-01-11T12:20:03;15.23;;;12.47;;
8399;SDS011;4237;47.030;15.396;2024-01-11T12:22:33;15.10;;;11.93;;
8399;SDS011;4237;47.030;15.396;2024-01-11T12:25:01;16.73;;;12.97;;
8399;SDS011;4237;47.030;15.396;2024-01-11T12:27:30;16.33;;;12.50;;
8399;SDS011;4237;47.030;15.396;2024-01-11T12:29:59;13.67;;;11.97;;
8399;SDS011;4237;47.030;15.396;2024-01-11T12:32:29;17.63;;;12.77;;
8399;SDS011;4237;47.030;15.396;2024-01-11T12:34:58;18.23;;;11.83;;
8399;SDS011;4237;47.030;15.396;2024-01-11T12:37:29;13.77;;;11.20;;
8399;SDS011;4237;47.030;15.396;2024-01-11T12:40:00;15.43;;;11.57;;
8399;SDS011;4237;47.030;15.396;2024-01-11T12:42:29;15.63;;;11.57;;
8399;SDS011;4237;47.030;15.396;2024-01-11T12:44:58;16.67;;;11.57;;
8399;SDS011;4237;47.030;15.396;2024-01-11T12:47:27;15.07;;;11.83;;
8399;SDS011;4237;47.030;15.396;2024-01-11T12:49:56;18.23;;;12.27;;
8399;SDS011;4237;47.030;15.396;2024-01-11T12:52:24;16.27;;;11.03;;
8399;SDS011;4237;47.030;15.396;2024-01-11T12:54:55;15.27;;;11.50;;
8399;SDS011;4237;47.030;15.396;2024-01-11T12:57:24;14.10;;;10.90;;
8399;SDS011;4237;47.030;15.396;2024-01-11T12:59:53;14.07;;;11.10;;
8399;SDS011;4237;47.030;15.396;2024-01-11T13:02:22;11.43;;;10.30;;
8399;SDS011;4237;47.030;15.396;2024-01-11T13:04:51;13.40;;;12.00;;
8399;SDS011;4237;47.030;15.396;2024-01-11T13:07:20;13.93;;;11.83;;
8399;SDS011;4237;47.030;15.396;2024-01-11T13:09:49;15.77;;;11.07;;
8399;SDS011;4237;47.030;15.396;2024-01-11T13:12:18;15.10;;;10.13;;
8399;SDS011;4237;47.030;15.396;2024-01-11T13:14:48;13.87;;;10.40;;
8399;SDS011;4237;47.030;15.396;2024-01-11T13:17:18;11.67;;;10.43;;
8399;SDS011;4237;47.030;15.396;2024-01-11T13:19:47;13.13;;;10.40;;
8399;SDS011;4237;47.030;15.396;2024-01-11T13:22:16;13.87;;;10.93;;
8399;SDS011;4237;47.030;15.396;2024-01-11T13:24:44;13.73;;;10.53;;
8399;SDS011;4237;47.030;15.396;2024-01-11T13:27:13;12.60;;;10.80;;
8399;SDS011;4237;47.030;15.396;2024-01-11T13:29:42;14.97;;;11.03;;
8399;SDS011;4237;47.030;15.396;2024-01-11T13:32:10;16.70;;;11.60;;
8399;SDS011;4237;47.030;15.396;2024-01-11T13:34:39;12.00;;;10.40;;
8399;SDS011;4237;47.030;15.396;2024-01-11T13:37:09;14.07;;;10.47;;
8399;SDS011;4237;47.030;15.396;2024-01-11T13:39:38;15.03;;;10.70;;
8399;SDS011;4237;47.030;15.396;2024-01-11T13:42:06;13.10;;;10.37;;
8399;SDS011;4237;47.030;15.396;2024-01-11T13:44:36;13.80;;;10.30;;
8399;SDS011;4237;47.030;15.396;2024-01-11T13:47:06;13.27;;;10.03;;
8399;SDS011;4237;47.030;15.396;2024-01-11T13:49:34;12.83;;;10.13;;
8399;SDS011;4237;47.030;15.396;2024-01-11T13:52:03;13.03;;;10.90;;
8399;SDS011;4237;47.030;15.396;2024-01-11T13:54:33;15.37;;;11.40;;
8399;SDS011;4237;47.030;15.396;2024-01-11T13:57:01;13.03;;;10.23;;
8399;SDS011;4237;47.030;15.396;2024-01-11T13:59:30;13.70;;;10.27;;
8399;SDS011;4237;47.030;15.396;2024-01-11T14:01:59;14.23;;;11.27;;
8399;SDS011;4237;47.030;15.396;2024-01-11T14:04:28;14.13;;;10.43;;
8399;SDS011;4237;47.030;15.396;2024-01-11T14:06:57;12.50;;;10.37;;
8399;SDS011;4237;47.030;15.396;2024-01-11T14:09:26;11.70;;;10.10;;
8399;SDS011;4237;47.030;15.396;2024-01-11T14:11:54;15.10;;;10.43;;
8399;SDS011;4237;47.030;15.396;2024-01-11T14:14:23;15.93;;;10.70;;
8399;SDS011;4237;47.030;15.396;2024-01-11T14:16:51;13.00;;;11.43;;
8399;SDS011;4237;47.030;15.396;2024-01-11T14:19:20;12.87;;;11.50;;
8399;SDS011;4237;47.030;15.396;2024-01-11T14:21:49;15.10;;;11.90;;
8399;SDS011;4237;47.030;15.396;2024-01-11T14:24:17;15.83;;;12.17;;
8399;SDS011;4237;47.030;15.396;2024-01-11T14:26:46;12.33;;;11.03;;
8399;SDS011;4237;47.030;15.396;2024-01-11T14:29:14;16.63;;;11.37;;
8399;SDS011;4237;47.030;15.396;2024-01-11T14:31:43;13.20;;;10.93;;
8399;SDS011;4237;47.030;15.396;2024-01-11T14:34:12;14.60;;;11.57;;
8399;SDS011;4237;47.030;15.396;2024-01-11T14:36:40;15.87;;;12.60;;
8399;SDS011;4237;47.030;15.396;2024-01-11T14:39:09;15.70;;;12.53;;
8399;SDS011;4237;47.030;15.396;2024-01-11T14:41:38;16.83;;;12.87;;
8399;SDS011;4237;47.030;15.396;2024-01-11T14:44:06;16.23;;;12.73;;
8399;SDS011;4237;47.030;15.396;2024-01-11T14:46:36;17.27;;;13.87;;
8399;SDS011;4237;47.030;15.396;2024-01-11T14:49:05;17.90;;;14.20;;
8399;SDS011;4237;47.030;15.396;2024-01-11T14:51:34;17.33;;;13.80;;